Terminal Aerodrome Forecast
Issued by NWS Wilmington, OH

Current Version | Previous Version | Text Only | Print | Product List | Glossary Off
Versions: 1 2 3 4 5 6 7 8 9 10 11 12 13 14 15 16 17 18 19 20

878
FTUS41 KILN 091745
TAFDAY
TAF
KDAY 091745Z 0918/1018 28014G22KT 1SM -SHSN BKN012 OVC022
     FM092000 28014G22KT 4SM -SHSN BKN012 OVC022
     FM100000 28014G20KT P6SM VCSH SCT012 OVC022
     FM100600 28014G20KT 4SM -SHSN BKN012 OVC022
     FM101500 28014G22KT P6SM -SHSN SCT012 OVC022=

USA.gov is the U.S. government's official web portal to all federal, state and local government web resources and services.